Welcome to Northern Hawkes Bay. New Zealand.
PWS Header
      nz Flag



Hit Counter


W3C Valid W3C Valid logo


    Wairoa

Select any of the Stations below to visit their websites.










Historic Data from Weather Underground
Select the location of interest below. Wairoa is the default. Please have patience, this Data is slow to load in.
Northern Hawkes Bay Historical Data
Daily Summary for January 26, 2017 Units:  English    Metric   Both
« Previous Day
Next Day »
Daily Weekly Monthly Yearly Custom
  High: Low: Average:
Temperature: 81.9 °F 49.6 °F 66.6 °F
Dew Point: 58.6 °F 36.3 °F 48.6 °F
Humidity: 92% 21% 57%
Wind Speed: 17.4mph 0mph 3.6mph
Wind Gust: 28.2mph - -
Wind- - SW
Pressure: 29.9 in 29.7 in -
Precipitation: 0 in    
Historical Graphs
 
 
Tabular Data for January 26, 2017
Time Temperature Dew Point Pressure Wind Wind Speed Wind Gust Humidity Rainfall Rate (Hourly) solar
00:01 63 °F 50.2 °F 29.8 in SW 13 mph 23.5 mph 63% 0 in 0 W/m2
00:06 61.7 °F 51.4 °F 29.8 in South 17.4 mph 28.2 mph 69% 0 in 0 W/m2
00:11 61.3 °F 52 °F 29.8 in South 15.9 mph 28.2 mph 71% 0 in 0 W/m2
00:13 61.3 °F 50.7 °F 29.8 in South 11.4 mph 28.2 mph 68% 0 in 0 W/m2
00:18 61.3 °F 50.7 °F 29.8 in South 13.6 mph 27.3 mph 68% 0 in 0 W/m2
00:23 61.3 °F 50.7 °F 29.8 in SSW 12.1 mph 27.3 mph 68% 0 in 0 W/m2
00:28 61.2 °F 50.2 °F 29.8 in SSW 13.6 mph 20.6 mph 67% 0 in 0 W/m2
00:33 61.2 °F 50.2 °F 29.8 in SSW 13 mph 20.6 mph 67% 0 in 0 W/m2
00:38 61.2 °F 50.2 °F 29.8 in SSW 7.6 mph 20.6 mph 67% 0 in 0 W/m2
00:43 61.2 °F 49.6 °F 29.8 in SSW 9.2 mph 20.6 mph 66% 0 in 0 W/m2
00:48 61.2 °F 50.2 °F 29.8 in SW 10.7 mph 19 mph 67% 0 in 0 W/m2
00:53 61.3 °F 49.8 °F 29.8 in SW 15.2 mph 19 mph 66% 0 in 0 W/m2
00:58 61.3 °F 49.5 °F 29.8 in SW 9.8 mph 18.3 mph 65% 0 in 0 W/m2
01:01 61.5 °F 49.3 °F 29.8 in SW 9.2 mph 18.3 mph 64% 0 in 0 W/m2
01:06 61.2 °F 48.9 °F 29.8 in SW 8.3 mph 16.8 mph 64% 0 in 0 W/m2
01:11 61 °F 49.1 °F 29.8 in WSW 5.4 mph 14.5 mph 65% 0 in 0 W/m2
01:29 60.6 °F 49.6 °F 29.8 in WSW 5.4 mph 10.7 mph 67% 0 in 0 W/m2
01:34 60.6 °F 49.3 °F 29.8 in WSW 4.5 mph 9.8 mph 66% 0 in 0 W/m2
01:39 60.4 °F 48.6 °F 29.8 in WSW 4.5 mph 9.8 mph 65% 0 in 0 W/m2
01:49 60.4 °F 48.2 °F 29.8 in WSW 2.2 mph 10.7 mph 64% 0 in 0 W/m2
01:54 60.1 °F 48.4 °F 29.8 in WSW 3.1 mph 9.8 mph 65% 0 in 0 W/m2
01:59 60.1 °F 48.4 °F 29.8 in WSW 1.6 mph 6 mph 65% 0 in 0 W/m2
02:04 59.9 °F 48.6 °F 29.8 in West 1.6 mph 6 mph 66% 0 in 0 W/m2
02:09 59.7 °F 48.4 °F 29.8 in West 0.7 mph 4.5 mph 66% 0 in 0 W/m2
02:14 59.5 °F 48.6 °F 29.8 in WSW 2.2 mph 5.4 mph 67% 0 in 0 W/m2
02:19 59.4 °F 48.7 °F 29.8 in WSW 1.6 mph 5.4 mph 68% 0 in 0 W/m2
02:24 59.2 °F 48.6 °F 29.8 in West 0.7 mph 4.5 mph 68% 0 in 0 W/m2
02:29 59 °F 48.6 °F 29.8 in Calm   4.5 mph 68% 0 in 0 W/m2
02:34 58.6 °F 48.9 °F 29.8 in WNW 0.7 mph 3.1 mph 70% 0 in 0 W/m2
02:39 58.6 °F 48.9 °F 29.8 in NW 1.6 mph 3.1 mph 70% 0 in 0 W/m2
02:44 58.5 °F 48.7 °F 29.8 in NW 1.6 mph 3.1 mph 70% 0 in 0 W/m2
02:49 58.1 °F 48.4 °F 29.8 in Calm   3.1 mph 70% 0 in 0 W/m2
02:54 57.7 °F 48 °F 29.8 in NW 0.7 mph 2.2 mph 70% 0 in 0 W/m2
02:59 57.2 °F 47.8 °F 29.8 in NW 2.2 mph 3.1 mph 71% 0 in 0 W/m2
03:04 56.8 °F 48.7 °F 29.8 in NW 1.6 mph 3.1 mph 74% 0 in 0 W/m2
03:09 56.3 °F 48.6 °F 29.8 in NNW 1.6 mph 3.1 mph 75% 0 in 0 W/m2
03:14 55.9 °F 48.6 °F 29.8 in NNW 1.6 mph 3.1 mph 76% 0 in 0 W/m2
03:19 55.6 °F 48 °F 29.8 in NNW 0.7 mph 3.1 mph 76% 0 in 0 W/m2
03:24 55.4 °F 48.4 °F 29.8 in North 0.7 mph 3.1 mph 77% 0 in 0 W/m2
03:29 54.9 °F 47.8 °F 29.8 in NNW 2.2 mph 3.1 mph 77% 0 in 0 W/m2
03:34 54.7 °F 48 °F 29.8 in NW 1.6 mph 3.8 mph 78% 0 in 0 W/m2
03:39 54.5 °F 48 °F 29.8 in NW 1.6 mph 3.8 mph 79% 0 in 0 W/m2
03:44 54.3 °F 48.4 °F 29.8 in NW 1.6 mph 3.8 mph 80% 0 in 0 W/m2
03:49 54 °F 48.4 °F 29.8 in NNW 1.6 mph 3.8 mph 81% 0 in 0 W/m2
03:54 53.6 °F 48.2 °F 29.8 in NNW 1.6 mph 3.8 mph 82% 0 in 0 W/m2
03:59 53.4 °F 48.4 °F 29.8 in NNW 2.2 mph 3.8 mph 83% 0 in 0 W/m2
04:04 53.2 °F 48.2 °F 29.8 in North 0.7 mph 3.1 mph 83% 0 in 0 W/m2
04:09 53.1 °F 48.4 °F 29.8 in NNW 2.2 mph 3.8 mph 84% 0 in 0 W/m2
04:14 52.9 °F 48.2 °F 29.8 in NW 1.6 mph 3.8 mph 84% 0 in 0 W/m2
04:19 52.5 °F 47.8 °F 29.8 in NNW 1.6 mph 3.8 mph 84% 0 in 0 W/m2
04:24 52.3 °F 47.7 °F 29.8 in NNW 2.2 mph 3.8 mph 84% 0 in 0 W/m2
04:29 52 °F 47.7 °F 29.8 in NNW 2.2 mph 3.8 mph 85% 0 in 0 W/m2
04:34 51.8 °F 47.8 °F 29.8 in NNW 2.2 mph 3.8 mph 86% 0 in 0 W/m2
04:39 51.8 °F 47.8 °F 29.8 in NNW 1.6 mph 3.8 mph 86% 0 in 0 W/m2
04:44 51.6 °F 47.8 °F 29.8 in NNW 1.6 mph 3.8 mph 87% 0 in 0 W/m2
04:49 51.3 °F 47.5 °F 29.8 in NNW 0.7 mph 3.1 mph 87% 0 in 0 W/m2
04:54 51.1 °F 47.5 °F 29.8 in NNW 2.2 mph 3.1 mph 87% 0 in 0 W/m2
05:00 51.1 °F 47.7 °F 29.8 in NNW 1.6 mph 3.1 mph 88% 0 in 0 W/m2
05:05 50.9 °F 47.5 °F 29.8 in NNW 1.6 mph 3.1 mph 88% 0 in 0 W/m2
05:10 50.7 °F 47.3 °F 29.8 in NNW 1.6 mph 3.1 mph 88% 0 in 0 W/m2
05:15 50.5 °F 47.1 °F 29.8 in NNW 0.7 mph 3.1 mph 88% 0 in 0 W/m2
05:20 50.4 °F 47.1 °F 29.8 in NW 1.6 mph 3.1 mph 89% 0 in 0 W/m2
05:25 50.2 °F 47.1 °F 29.8 in NW 0.7 mph 3.1 mph 89% 0 in 0 W/m2
05:30 50 °F 46.9 °F 29.8 in NNW 0.7 mph 3.1 mph 89% 0 in 0 W/m2
05:35 49.6 °F 47.1 °F 29.8 in NNW 1.6 mph 2.2 mph 91% 0 in 0 W/m2
05:40 49.6 °F 47.1 °F 29.8 in NNW 1.6 mph 2.2 mph 91% 0 in 0 W/m2
05:46 49.8 °F 47.7 °F 29.8 in NNW 2.2 mph 4.5 mph 92% 0 in 0 W/m2
05:51 50.2 °F 47.7 °F 29.8 in NNW 0.7 mph 4.5 mph 91% 0 in 0 W/m2
05:56 50.4 °F 47.5 °F 29.8 in NNW 1.6 mph 4.5 mph 90% 0 in 0 W/m2
06:01 50 °F 46.9 °F 29.8 in NW 2.2 mph 3.8 mph 89% 0 in 0 W/m2
06:06 50 °F 46.9 °F 29.8 in NW 1.6 mph 3.8 mph 89% 0 in 0 W/m2
06:11 50 °F 46.9 °F 29.8 in NW 3.1 mph 4.5 mph 89% 0 in 2 W/m2
06:16 50.5 °F 47.5 °F 29.8 in NNW 3.8 mph 6.9 mph 89% 0 in 4 W/m2
06:21 50.9 °F 47.1 °F 29.8 in NNW 2.2 mph 6.9 mph 87% 0 in 7 W/m2
06:26 51.1 °F 46.9 °F 29.8 in NNW 3.1 mph 6.9 mph 86% 0 in 12 W/m2
06:31 51.1 °F 46.9 °F 29.8 in NNW 3.1 mph 6 mph 86% 0 in 16 W/m2
06:36 51.1 °F 46.9 °F 29.8 in NNW 3.1 mph 4.5 mph 86% 0 in 24 W/m2
06:41 51.3 °F 46.9 °F 29.8 in NNW 3.8 mph 7.6 mph 85% 0 in 36 W/m2
06:46 51.6 °F 47.3 °F 29.8 in NNW 4.5 mph 7.6 mph 85% 0 in 43 W/m2
06:51 52.2 °F 46.8 °F 29.8 in NNW 3.8 mph 7.6 mph 82% 0 in 48 W/m2
06:56 52.3 °F 46.4 °F 29.8 in NNW 3.1 mph 7.6 mph 80% 0 in 27 W/m2
07:01 52 °F 45.7 °F 29.8 in NNW 3.8 mph 7.6 mph 79% 0 in 33 W/m2
07:06 51.6 °F 46 °F 29.8 in NNW 4.5 mph 6 mph 81% 0 in 34 W/m2
07:11 51.4 °F 45.9 °F 29.8 in NNW 3.1 mph 6.9 mph 81% 0 in 39 W/m2
07:16 51.4 °F 45.9 °F 29.8 in NW 4.5 mph 6.9 mph 81% 0 in 54 W/m2
07:21 51.6 °F 45.7 °F 29.8 in NNW 3.1 mph 6.9 mph 80% 0 in 36 W/m2
07:26 51.8 °F 45.5 °F 29.8 in NNW 5.4 mph 7.6 mph 79% 0 in 99 W/m2
07:31 52.3 °F 45.7 °F 29.8 in NNW 5.4 mph 7.6 mph 78% 0 in 128 W/m2
07:36 53.4 °F 46 °F 29.8 in NNW 5.4 mph 8.3 mph 76% 0 in 143 W/m2
07:41 54.3 °F 45.5 °F 29.8 in NNW 5.4 mph 9.8 mph 72% 0 in 163 W/m2
07:46 55 °F 45.3 °F 29.8 in North 4.5 mph 9.8 mph 70% 0 in 176 W/m2
07:51 55.8 °F 45.9 °F 29.8 in North 3.8 mph 9.2 mph 69% 0 in 195 W/m2
07:56 56.3 °F 45.9 °F 29.9 in North 5.4 mph 10.7 mph 68% 0 in 150 W/m2
08:01 56.3 °F 45.9 °F 29.9 in North 6 mph 10.7 mph 68% 0 in 210 W/m2
08:06 56.5 °F 45.7 °F 29.9 in North 6.9 mph 9.8 mph 67% 0 in 223 W/m2
08:11 57.2 °F 45.7 °F 29.9 in North 6 mph 10.7 mph 65% 0 in 234 W/m2
08:16 57.4 °F 45.7 °F 29.9 in NNW 6 mph 10.7 mph 65% 0 in 247 W/m2
08:21 58.1 °F 46.4 °F 29.9 in NNW 3.8 mph 9.8 mph 65% 0 in 261 W/m2
08:26 59 °F 46.4 °F 29.9 in NNW 5.4 mph 9.2 mph 63% 0 in 278 W/m2
08:31 59.7 °F 47.1 °F 29.9 in NNW 5.4 mph 9.2 mph 63% 0 in 185 W/m2
08:36 59.9 °F 47.3 °F 29.9 in NNW 2.2 mph 9.2 mph 63% 0 in 287 W/m2
08:41 60.6 °F 47.1 °F 29.9 in NNW 6 mph 8.3 mph 61% 0 in 318 W/m2
08:46 60.8 °F 46.4 °F 29.9 in NNW 5.4 mph 9.8 mph 59% 0 in 334 W/m2
08:51 61.2 °F 46.8 °F 29.9 in North 5.4 mph 9.8 mph 59% 0 in 355 W/m2
08:56 61.9 °F 46.9 °F 29.9 in North 4.5 mph 9.8 mph 58% 0 in 379 W/m2
09:01 62.6 °F 46.8 °F 29.9 in NNW 4.5 mph 8.3 mph 56% 0 in 400 W/m2
09:07 63.1 °F 46.2 °F 29.9 in NNW 5.4 mph 10.7 mph 54% 0 in 423 W/m2
09:12 63.7 °F 47.1 °F 29.9 in North 2.2 mph 10.7 mph 55% 0 in 452 W/m2
09:17 65.1 °F 48.6 °F 29.9 in North 5.4 mph 8.3 mph 55% 0 in 469 W/m2
09:22 64.9 °F 48.4 °F 29.9 in North 6.9 mph 9.8 mph 55% 0 in 420 W/m2
09:27 64.4 °F 47.8 °F 29.9 in North 4.5 mph 9.8 mph 55% 0 in 459 W/m2
09:32 64.8 °F 47.7 °F 29.9 in NNW 3.8 mph 9.8 mph 54% 0 in 447 W/m2
09:37 65.7 °F 47.7 °F 29.9 in NNW 4.5 mph 8.3 mph 52% 0 in 512 W/m2
09:42 66.4 °F 45.7 °F 29.9 in NNW 4.5 mph 8.3 mph 47% 0 in 564 W/m2
09:47 66.7 °F 45.9 °F 29.9 in North 6 mph 9.2 mph 47% 0 in 423 W/m2
09:52 66.4 °F 45.7 °F 29.9 in North 3.8 mph 9.2 mph 47% 0 in 478 W/m2
09:57 67.3 °F 45.9 °F 29.9 in NNW 3.8 mph 9.2 mph 46% 0 in 347 W/m2
10:02 67.8 °F 45.7 °F 29.9 in NNW 3.8 mph 8.3 mph 45% 0 in 620 W/m2
10:07 68.4 °F 45 °F 29.9 in NNW 3.8 mph 8.3 mph 43% 0 in 609 W/m2
10:12 68.7 °F 45.3 °F 29.9 in NNW 4.5 mph 8.3 mph 43% 0 in 680 W/m2
10:17 69.6 °F 44.2 °F 29.9 in NNW 5.4 mph 7.6 mph 40% 0 in 652 W/m2
10:22 70.5 °F 44.4 °F 29.9 in NNW 4.5 mph 7.6 mph 39% 0 in 720 W/m2
10:27 71.1 °F 44.2 °F 29.9 in NNE 4.5 mph 6.9 mph 38% 0 in 746 W/m2
10:32 70.5 °F 43 °F 29.9 in NNE 6 mph 10.7 mph 37% 0 in 712 W/m2
10:37 70.3 °F 43.5 °F 29.9 in NNE 3.1 mph 10.7 mph 38% 0 in 742 W/m2
10:42 71.4 °F 43.9 °F 29.9 in NNE 3.8 mph 9.8 mph 37% 0 in 717 W/m2
10:47 70.9 °F 43.3 °F 29.9 in NNE 6.9 mph 11.4 mph 37% 0 in 728 W/m2
10:52 70.7 °F 43.2 °F 29.9 in North 3.8 mph 11.4 mph 37% 0 in 746 W/m2
10:57 71.1 °F 42.1 °F 29.9 in North 3.8 mph 10.7 mph 35% 0 in 830 W/m2
11:02 72.1 °F 43 °F 29.9 in North 3.8 mph 10.7 mph 35% 0 in 905 W/m2
11:07 72.1 °F 42.3 °F 29.9 in NNW 6 mph 8.3 mph 34% 0 in 436 W/m2
11:12 71.6 °F 41.7 °F 29.9 in NNW 5.4 mph 8.3 mph 34% 0 in 560 W/m2
11:17 72.3 °F 41.5 °F 29.8 in North 4.5 mph 8.3 mph 33% 0 in 354 W/m2
11:22 72.5 °F 42.6 °F 29.8 in North 5.4 mph 9.2 mph 34% 0 in 298 W/m2
11:27 71.8 °F 41.9 °F 29.8 in NNE 2.2 mph 9.2 mph 34% 0 in 906 W/m2
11:32 73.8 °F 44.4 °F 29.8 in NNE 6 mph 9.2 mph 35% 0 in 930 W/m2
11:37 73.9 °F 42.3 °F 29.8 in NNE 4.5 mph 9.8 mph 32% 0 in 895 W/m2
11:42 73.9 °F 42.3 °F 29.8 in NNE 3.1 mph 9.8 mph 32% 0 in 945 W/m2
11:47 74.3 °F 41.7 °F 29.8 in NNE 5.4 mph 9.2 mph 31% 0 in 966 W/m2
11:53 75.6 °F 43.7 °F 29.8 in North 4.5 mph 9.2 mph 32% 0 in 978 W/m2
11:58 75.6 °F 39.4 °F 29.8 in North 5.4 mph 9.8 mph 27% 0 in 971 W/m2
12:03 76.1 °F 40.6 °F 29.8 in North 3.8 mph 9.8 mph 28% 0 in 801 W/m2
12:08 75.7 °F 39.4 °F 29.8 in North 6 mph 10.7 mph 27% 0 in 1029 W/m2
12:13 75.4 °F 39 °F 29.8 in North 6.9 mph 13.6 mph 27% 0 in 378 W/m2
12:18 75.7 °F 39.4 °F 29.8 in North 3.1 mph 13.6 mph 27% 0 in 978 W/m2
12:23 76.8 °F 41.4 °F 29.8 in NNE 6.9 mph 9.8 mph 28% 0 in 964 W/m2
12:28 76.8 °F 42.3 °F 29.8 in North 6 mph 12.1 mph 29% 0 in 948 W/m2
12:33 77.4 °F 38.8 °F 29.8 in NW 3.8 mph 12.1 mph 25% 0 in 985 W/m2
12:38 77.7 °F 39 °F 29.8 in NW 5.4 mph 12.1 mph 25% 0 in 997 W/m2
12:43 78.6 °F 38.8 °F 29.8 in NNE 3.1 mph 11.4 mph 24% 0 in 996 W/m2
12:48 79.3 °F 38.5 °F 29.8 in NNE 6.9 mph 10.7 mph 23% 0 in 999 W/m2
12:53 79 °F 36.9 °F 29.8 in North 6 mph 12.1 mph 22% 0 in 988 W/m2
12:58 78.1 °F 37.2 °F 29.8 in North 3.1 mph 12.1 mph 23% 0 in 978 W/m2
13:03 78.3 °F 37.6 °F 29.8 in NNE 8.3 mph 13.6 mph 23% 0 in 975 W/m2
13:08 78.4 °F 37.6 °F 29.8 in NNE 4.5 mph 13.6 mph 23% 0 in 973 W/m2
13:13 79.2 °F 37 °F 29.8 in NNE 6 mph 12.1 mph 22% 0 in 978 W/m2
13:18 80.1 °F 39 °F 29.8 in North 2.2 mph 12.1 mph 23% 0 in 980 W/m2
13:23 80.4 °F 38.1 °F 29.8 in NW 6.9 mph 12.1 mph 22% 0 in 982 W/m2
13:28 79.9 °F 37.8 °F 29.8 in NNW 0.7 mph 11.4 mph 22% 0 in 974 W/m2
13:33 80.6 °F 37 °F 29.8 in NNE 4.5 mph 10.7 mph 21% 0 in 974 W/m2
13:38 79.7 °F 36.3 °F 29.8 in ENE 3.8 mph 11.4 mph 21% 0 in 958 W/m2
13:43 79.7 °F 37.6 °F 29.8 in ENE 2.2 mph 11.4 mph 22% 0 in 951 W/m2
13:48 80.6 °F 37 °F 29.8 in ENE 6.9 mph 12.1 mph 21% 0 in 956 W/m2
13:53 80.2 °F 37.9 °F 29.8 in NE 0.7 mph 12.1 mph 22% 0 in 943 W/m2
13:58 81.3 °F 37.8 °F 29.8 in NNE 9.2 mph 13 mph 21% 0 in 947 W/m2
14:03 79.2 °F 48.4 °F 29.8 in ENE 3.8 mph 13 mph 34% 0 in 929 W/m2
14:08 77.4 °F 52 °F 29.8 in SSE 11.4 mph 16.8 mph 41% 0 in 915 W/m2
14:13 75.6 °F 52.2 °F 29.8 in South 9.2 mph 16.8 mph 44% 0 in 900 W/m2
14:18 74.7 °F 53.8 °F 29.8 in South 3.8 mph 15.2 mph 48% 0 in 889 W/m2
14:23 75 °F 53.4 °F 29.8 in SSE 6.9 mph 13 mph 47% 0 in 885 W/m2
14:28 75.4 °F 52.5 °F 29.8 in SE 9.2 mph 12.1 mph 45% 0 in 885 W/m2
14:33 75.4 °F 52 °F 29.8 in SSE 4.5 mph 12.1 mph 44% 0 in 879 W/m2
14:38 76.3 °F 48 °F 29.8 in SSE 7.6 mph 12.1 mph 37% 0 in 875 W/m2
14:43 76.8 °F 49.3 °F 29.8 in SSE 9.2 mph 13 mph 38% 0 in 875 W/m2
14:48 77.4 °F 46.8 °F 29.8 in SSE 3.8 mph 13 mph 34% 0 in 873 W/m2
15:06 78.3 °F 49.3 °F 29.8 in SSE 6 mph 11.4 mph 36% 0 in 804 W/m2
15:11 78.6 °F 47.8 °F 29.8 in ESE 5.4 mph 11.4 mph 34% 0 in 846 W/m2
15:16 79.3 °F 48.6 °F 29.8 in East 5.4 mph 9.8 mph 34% 0 in 772 W/m2
15:21 79.5 °F 48.7 °F 29.8 in SE 4.5 mph 9.2 mph 34% 0 in 677 W/m2
15:26 79.2 °F 49.3 °F 29.8 in SE 5.4 mph 9.2 mph 35% 0 in 371 W/m2
15:32 77.5 °F 47.8 °F 29.8 in SE 4.5 mph 11.4 mph 35% 0 in 343 W/m2
15:37 77 °F 47.3 °F 29.8 in SSE 4.5 mph 11.4 mph 35% 0 in 384 W/m2
15:42 76.6 °F 48.4 °F 29.8 in SSE 4.5 mph 8.3 mph 37% 0 in 540 W/m2
15:47 77.5 °F 48.6 °F 29.8 in SSE 3.8 mph 7.6 mph 36% 0 in 694 W/m2
15:52 79.2 °F 48.4 °F 29.8 in SE 3.8 mph 8.3 mph 34% 0 in 359 W/m2
15:57 79.7 °F 47.3 °F 29.8 in SE 4.5 mph 8.3 mph 32% 0 in 551 W/m2
16:02 80.2 °F 46.9 °F 29.8 in SSE 4.5 mph 9.8 mph 31% 0 in 451 W/m2
16:07 80.8 °F 48.2 °F 29.8 in SSE 3.1 mph 9.8 mph 32% 0 in 429 W/m2
16:12 81 °F 47.5 °F 29.8 in SE 3.8 mph 9.8 mph 31% 0 in 482 W/m2
16:17 80.4 °F 48.7 °F 29.8 in SE 2.2 mph 9.8 mph 33% 0 in 623 W/m2
16:22 81 °F 48.4 °F 29.8 in SSE 2.2 mph 9.2 mph 32% 0 in 663 W/m2
16:27 81.9 °F 45.7 °F 29.8 in SSE 3.1 mph 9.8 mph 28% 0 in 634 W/m2
16:32 81.3 °F 47.8 °F 29.8 in SE 3.8 mph 11.4 mph 31% 0 in 631 W/m2
16:37 80.8 °F 47.5 °F 29.8 in SSE 3.8 mph 11.4 mph 31% 0 in 604 W/m2
16:42 80.8 °F 47.5 °F 29.8 in SSE 3.1 mph 9.8 mph 31% 0 in 592 W/m2
16:47 80.2 °F 49.5 °F 29.8 in SE 3.1 mph 10.7 mph 34% 0 in 561 W/m2
16:52 79.9 °F 50.5 °F 29.8 in SSE 4.5 mph 10.7 mph 36% 0 in 561 W/m2
16:57 80.2 °F 50.2 °F 29.8 in SSE 5.4 mph 9.8 mph 35% 0 in 544 W/m2
17:02 80.4 °F 49.5 °F 29.8 in SE 1.6 mph 9.8 mph 34% 0 in 529 W/m2
17:07 80.6 °F 48 °F 29.8 in SE 3.1 mph 9.8 mph 32% 0 in 515 W/m2
17:12 81 °F 48.4 °F 29.8 in SE 5.4 mph 8.3 mph 32% 0 in 499 W/m2
17:17 81 °F 50.7 °F 29.8 in ESE 3.8 mph 8.3 mph 35% 0 in 481 W/m2
17:22 80.6 °F 50.5 °F 29.8 in ESE 3.8 mph 8.3 mph 35% 0 in 466 W/m2
17:27 80.1 °F 49.3 °F 29.8 in ESE 4.5 mph 8.3 mph 34% 0 in 453 W/m2
17:32 79.9 °F 49.8 °F 29.8 in SE 4.5 mph 9.8 mph 35% 0 in 434 W/m2
17:37 78.8 °F 48 °F 29.8 in ESE 4.5 mph 10.7 mph 34% 0 in 419 W/m2
17:42 78.1 °F 48.9 °F 29.7 in East 4.5 mph 10.7 mph 36% 0 in 402 W/m2
17:47 79.2 °F 47.7 °F 29.7 in East 2.2 mph 9.8 mph 33% 0 in 388 W/m2
17:52 80.1 °F 49.3 °F 29.8 in SE 1.6 mph 7.6 mph 34% 0 in 376 W/m2
17:57 81 °F 48.4 °F 29.7 in SE 3.8 mph 6.9 mph 32% 0 in 362 W/m2
18:02 81.3 °F 50.4 °F 29.7 in SSE 3.1 mph 6.9 mph 34% 0 in 346 W/m2
18:07 81.5 °F 52.9 °F 29.7 in SE 3.1 mph 6.9 mph 37% 0 in 332 W/m2
18:12 81.3 °F 52.5 °F 29.8 in SSE 3.8 mph 7.6 mph 37% 0 in 317 W/m2
18:17 80.8 °F 51.4 °F 29.8 in SSE 3.8 mph 7.6 mph 36% 0 in 305 W/m2
18:22 80.4 °F 51.1 °F 29.8 in SE 3.1 mph 7.6 mph 36% 0 in 288 W/m2
18:27 80.8 °F 50.5 °F 29.8 in SE 2.2 mph 6.9 mph 35% 0 in 275 W/m2
18:32 81 °F 52.3 °F 29.8 in SE 2.2 mph 6 mph 37% 0 in 261 W/m2
18:37 80.6 °F 54.1 °F 29.8 in SSE 4.5 mph 6.9 mph 40% 0 in 245 W/m2
18:42 80.1 °F 54.3 °F 29.8 in SE 3.1 mph 7.6 mph 41% 0 in 231 W/m2
18:47 80.8 °F 52.9 °F 29.8 in ESE 1.6 mph 7.6 mph 38% 0 in 218 W/m2
18:53 81.5 °F 52 °F 29.8 in SE 1.6 mph 5.4 mph 36% 0 in 203 W/m2
18:58 80.8 °F 52.9 °F 29.8 in SSE 1.6 mph 5.4 mph 38% 0 in 108 W/m2
19:03 78.8 °F 53.1 °F 29.8 in Calm   5.4 mph 41% 0 in 57 W/m2
19:08 77.7 °F 52.9 °F 29.8 in SSE 0.7 mph 3.1 mph 42% 0 in 55 W/m2
19:13 77 °F 51.4 °F 29.8 in East 1.6 mph 2.2 mph 41% 0 in 55 W/m2
19:18 76.5 °F 53.1 °F 29.8 in ESE 2.2 mph 3.8 mph 44% 0 in 58 W/m2
19:23 75.9 °F 54.3 °F 29.8 in SSE 2.2 mph 4.5 mph 47% 0 in 52 W/m2
19:28 75.6 °F 55.6 °F 29.8 in SSE 3.1 mph 4.5 mph 50% 0 in 49 W/m2
19:33 74.5 °F 57.4 °F 29.8 in SSE 2.2 mph 5.4 mph 55% 0 in 43 W/m2
19:38 73 °F 57.9 °F 29.8 in SSE 0.7 mph 5.4 mph 59% 0 in 40 W/m2
19:43 72.5 °F 57.9 °F 29.8 in SSE 0.7 mph 5.4 mph 60% 0 in 57 W/m2
19:48 73.2 °F 58.1 °F 29.8 in South 2.2 mph 3.1 mph 59% 0 in 82 W/m2
19:53 72.9 °F 58.6 °F 29.8 in WSW 1.6 mph 4.5 mph 61% 0 in 70 W/m2
19:58 73.4 °F 57.7 °F 29.8 in SW 0.7 mph 4.5 mph 58% 0 in 56 W/m2
20:03 72.7 °F 57.9 °F 29.8 in Calm   3.1 mph 60% 0 in 32 W/m2
20:08 71.6 °F 57.6 °F 29.8 in Calm   3.1 mph 61% 0 in 21 W/m2
20:13 70.5 °F 56.8 °F 29.8 in WNW 1.6 mph 2.2 mph 62% 0 in 16 W/m2
20:18 69.8 °F 56.7 °F 29.8 in Calm   3.1 mph 63% 0 in 13 W/m2
20:23 69.4 °F 56.8 °F 29.8 in WNW 0.7 mph 3.1 mph 64% 0 in 9 W/m2
20:28 68.9 °F 56.7 °F 29.8 in Calm   2.2 mph 65% 0 in 5 W/m2
20:33 68.4 °F 56.7 °F 29.8 in Calm   2.2 mph 66% 0 in 3 W/m2
20:38 67.6 °F 55.9 °F 29.8 in Calm   2.2 mph 66% 0 in 1 W/m2
20:43 67.3 °F 55.9 °F 29.8 in Calm   1.6 mph 67% 0 in 0 W/m2
20:48 67.1 °F 55.8 °F 29.8 in Calm   1.6 mph 67% 0 in 0 W/m2
20:53 66.7 °F 55.6 °F 29.8 in Calm   1.6 mph 67% 0 in 0 W/m2
20:58 66.6 °F 56.1 °F 29.8 in Calm   1.6 mph 69% 0 in 0 W/m2
21:03 66.7 °F 56.7 °F 29.8 in North 1.6 mph 2.2 mph 70% 0 in 0 W/m2
21:08 66.7 °F 56.3 °F 29.8 in North 1.6 mph 2.2 mph 69% 0 in 0 W/m2
21:13 66.7 °F 56.7 °F 29.8 in Calm   2.2 mph 70% 0 in 0 W/m2
21:18 66.6 °F 56.5 °F 29.8 in Calm   2.2 mph 70% 0 in 0 W/m2
21:23 66 °F 56.8 °F 29.8 in Calm   2.2 mph 72% 0 in 0 W/m2
21:28 65.7 °F 56.5 °F 29.8 in Calm     72% 0 in 0 W/m2
21:33 65.5 °F 56.7 °F 29.8 in WNW 1.6 mph 2.2 mph 73% 0 in 0 W/m2
21:38 65.3 °F 56.5 °F 29.8 in Calm   2.2 mph 73% 0 in 0 W/m2
21:43 64.8 °F 55.9 °F 29.8 in Calm   2.2 mph 73% 0 in 0 W/m2
21:48 64.6 °F 55.8 °F 29.8 in NW 0.7 mph 2.2 mph 73% 0 in 0 W/m2
21:53 64.4 °F 55.9 °F 29.8 in Calm   3.1 mph 74% 0 in 0 W/m2
21:58 64 °F 55.2 °F 29.8 in NNW 0.7 mph 3.1 mph 73% 0 in 0 W/m2
22:03 63.9 °F 55 °F 29.8 in NNW 0.7 mph 3.1 mph 73% 0 in 0 W/m2
22:08 63.9 °F 55 °F 29.8 in NNW 1.6 mph 3.1 mph 73% 0 in 0 W/m2
22:13 63.7 °F 54.9 °F 29.8 in North 2.2 mph 3.1 mph 73% 0 in 0 W/m2
22:18 63.5 °F 54.7 °F 29.8 in North 2.2 mph 3.1 mph 73% 0 in 0 W/m2
22:23 63.1 °F 54.7 °F 29.8 in NNW 1.6 mph 3.1 mph 74% 0 in 0 W/m2
22:28 63 °F 54.7 °F 29.8 in NNW 1.6 mph 3.1 mph 74% 0 in 0 W/m2
22:33 62.8 °F 54.3 °F 29.8 in Calm   2.2 mph 74% 0 in 0 W/m2
22:38 62.8 °F 54.9 °F 29.8 in NNW 1.6 mph 3.1 mph 75% 0 in 0 W/m2
22:43 62.6 °F 54.1 °F 29.8 in NNW 0.7 mph 3.1 mph 74% 0 in 0 W/m2
22:48 62.4 °F 54.3 °F 29.8 in Calm   3.8 mph 75% 0 in 0 W/m2
22:53 62.2 °F 54.1 °F 29.8 in NNW 1.6 mph 3.8 mph 75% 0 in 0 W/m2
22:58 62.1 °F 54.1 °F 29.8 in NNW 0.7 mph 3.1 mph 75% 0 in 0 W/m2
23:03 62.1 °F 54.3 °F 29.8 in NNW 1.6 mph 3.1 mph 76% 0 in 0 W/m2
23:08 62.1 °F 54.3 °F 29.8 in NW 2.2 mph 3.8 mph 76% 0 in 0 W/m2
23:13 62.1 °F 54.1 °F 29.8 in NW 1.6 mph 3.8 mph 75% 0 in 0 W/m2
23:18 62.1 °F 54.1 °F 29.8 in NW 1.6 mph 3.1 mph 75% 0 in 0 W/m2
23:23 62.2 °F 54.1 °F 29.8 in NNW 0.7 mph 3.1 mph 75% 0 in 0 W/m2
23:28 62.6 °F 53.8 °F 29.8 in NNW 1.6 mph 3.8 mph 73% 0 in 0 W/m2
23:33 63.5 °F 54.3 °F 29.8 in NNW 1.6 mph 5.4 mph 72% 0 in 0 W/m2
23:38 64.2 °F 54.1 °F 29.8 in NNW 1.6 mph 5.4 mph 70% 0 in 0 W/m2
23:43 64.4 °F 53.6 °F 29.8 in NNW 1.6 mph 4.5 mph 68% 0 in 0 W/m2
23:48 64.4 °F 53.6 °F 29.8 in NNW 3.8 mph 6 mph 68% 0 in 0 W/m2
23:53 64.4 °F 53.6 °F 29.8 in NW 3.1 mph 6 mph 68% 0 in 0 W/m2
23:58 64.2 °F 53.4 °F 29.8 in NNW 2.2 mph 5.4 mph 68% 0 in 0 W/m2
Northern Hawkes Bay. New Zealand Historic Data
Compliments of Weather Underground - 2.25 mb